sensor_id;sensor_type;location;lat;lon;timestamp;P1;durP1;ratioP1;P2;durP2;ratioP2
56455;SDS011;42354;53.218;6.564;2023-05-10T00:02:22;21.67;;;13.20;;
56455;SDS011;42354;53.218;6.564;2023-05-10T00:04:48;23.15;;;13.40;;
56455;SDS011;42354;53.218;6.564;2023-05-10T00:07:13;20.17;;;13.05;;
56455;SDS011;42354;53.218;6.564;2023-05-10T00:09:38;21.30;;;13.68;;
56455;SDS011;42354;53.218;6.564;2023-05-10T00:12:05;23.77;;;14.00;;
56455;SDS011;42354;53.218;6.564;2023-05-10T00:14:30;22.13;;;13.75;;
56455;SDS011;42354;53.218;6.564;2023-05-10T00:16:56;22.88;;;14.30;;
56455;SDS011;42354;53.218;6.564;2023-05-10T00:19:21;24.85;;;14.07;;
56455;SDS011;42354;53.218;6.564;2023-05-10T00:21:46;25.05;;;14.18;;
56455;SDS011;42354;53.218;6.564;2023-05-10T00:24:12;23.27;;;13.88;;
56455;SDS011;42354;53.218;6.564;2023-05-10T00:26:37;21.13;;;13.85;;
56455;SDS011;42354;53.218;6.564;2023-05-10T00:29:02;24.55;;;13.00;;
56455;SDS011;42354;53.218;6.564;2023-05-10T00:31:28;20.30;;;12.23;;
56455;SDS011;42354;53.218;6.564;2023-05-10T00:33:54;20.50;;;12.55;;
56455;SDS011;42354;53.218;6.564;2023-05-10T00:36:19;19.35;;;11.50;;
56455;SDS011;42354;53.218;6.564;2023-05-10T00:38:45;17.88;;;11.45;;
56455;SDS011;42354;53.218;6.564;2023-05-10T00:41:11;19.90;;;11.38;;
56455;SDS011;42354;53.218;6.564;2023-05-10T00:43:36;17.27;;;10.15;;
56455;SDS011;42354;53.218;6.564;2023-05-10T00:46:01;17.25;;;10.10;;
56455;SDS011;42354;53.218;6.564;2023-05-10T00:48:28;16.48;;;9.77;;
56455;SDS011;42354;53.218;6.564;2023-05-10T00:50:54;16.75;;;10.23;;
56455;SDS011;42354;53.218;6.564;2023-05-10T00:53:19;14.43;;;8.93;;
56455;SDS011;42354;53.218;6.564;2023-05-10T00:55:45;17.23;;;9.70;;
56455;SDS011;42354;53.218;6.564;2023-05-10T00:58:10;15.20;;;8.43;;
56455;SDS011;42354;53.218;6.564;2023-05-10T01:00:37;13.25;;;8.68;;
56455;SDS011;42354;53.218;6.564;2023-05-10T01:03:06;15.73;;;8.95;;
56455;SDS011;42354;53.218;6.564;2023-05-10T01:05:31;13.75;;;8.90;;
56455;SDS011;42354;53.218;6.564;2023-05-10T01:07:57;12.30;;;8.23;;
56455;SDS011;42354;53.218;6.564;2023-05-10T01:10:22;14.30;;;9.07;;
56455;SDS011;42354;53.218;6.564;2023-05-10T01:12:47;14.80;;;9.35;;
56455;SDS011;42354;53.218;6.564;2023-05-10T01:15:13;15.15;;;9.43;;
56455;SDS011;42354;53.218;6.564;2023-05-10T01:17:40;15.48;;;9.40;;
56455;SDS011;42354;53.218;6.564;2023-05-10T01:20:09;15.75;;;9.35;;
56455;SDS011;42354;53.218;6.564;2023-05-10T01:37:23;18.58;;;10.88;;
56455;SDS011;42354;53.218;6.564;2023-05-10T01:40:03;22.55;;;11.80;;
56455;SDS011;42354;53.218;6.564;2023-05-10T01:42:43;17.83;;;10.85;;
56455;SDS011;42354;53.218;6.564;2023-05-10T01:48:13;20.45;;;11.13;;
56455;SDS011;42354;53.218;6.564;2023-05-10T01:50:41;16.25;;;10.15;;
56455;SDS011;42354;53.218;6.564;2023-05-10T01:53:11;16.33;;;10.63;;
56455;SDS011;42354;53.218;6.564;2023-05-10T01:55:43;17.05;;;10.15;;
56455;SDS011;42354;53.218;6.564;2023-05-10T01:58:15;19.80;;;10.75;;
56455;SDS011;42354;53.218;6.564;2023-05-10T02:03:12;16.83;;;10.52;;
56455;SDS011;42354;53.218;6.564;2023-05-10T02:05:39;19.92;;;11.27;;
56455;SDS011;42354;53.218;6.564;2023-05-10T02:08:09;18.85;;;12.20;;
56455;SDS011;42354;53.218;6.564;2023-05-10T02:10:35;16.92;;;10.63;;
56455;SDS011;42354;53.218;6.564;2023-05-10T02:13:02;16.60;;;10.77;;
56455;SDS011;42354;53.218;6.564;2023-05-10T02:15:29;19.63;;;11.18;;
56455;SDS011;42354;53.218;6.564;2023-05-10T02:17:55;19.02;;;12.15;;
56455;SDS011;42354;53.218;6.564;2023-05-10T02:20:23;17.35;;;11.00;;
56455;SDS011;42354;53.218;6.564;2023-05-10T02:22:50;18.48;;;10.50;;
56455;SDS011;42354;53.218;6.564;2023-05-10T02:25:17;17.10;;;10.80;;
56455;SDS011;42354;53.218;6.564;2023-05-10T02:27:46;18.70;;;11.38;;
56455;SDS011;42354;53.218;6.564;2023-05-10T02:30:13;18.70;;;11.02;;
56455;SDS011;42354;53.218;6.564;2023-05-10T02:32:39;17.35;;;11.15;;
56455;SDS011;42354;53.218;6.564;2023-05-10T02:35:06;21.58;;;12.13;;
56455;SDS011;42354;53.218;6.564;2023-05-10T02:37:33;20.20;;;11.73;;
56455;SDS011;42354;53.218;6.564;2023-05-10T02:40:01;19.33;;;11.88;;
56455;SDS011;42354;53.218;6.564;2023-05-10T02:42:31;20.45;;;12.05;;
56455;SDS011;42354;53.218;6.564;2023-05-10T02:45:00;20.17;;;12.85;;
56455;SDS011;42354;53.218;6.564;2023-05-10T02:47:30;22.65;;;13.18;;
56455;SDS011;42354;53.218;6.564;2023-05-10T02:49:56;26.60;;;13.88;;
56455;SDS011;42354;53.218;6.564;2023-05-10T02:52:23;24.92;;;13.35;;
56455;SDS011;42354;53.218;6.564;2023-05-10T02:54:52;24.00;;;12.98;;
56455;SDS011;42354;53.218;6.564;2023-05-10T02:57:22;26.75;;;15.27;;
56455;SDS011;42354;53.218;6.564;2023-05-10T02:59:52;30.65;;;15.70;;
56455;SDS011;42354;53.218;6.564;2023-05-10T03:02:18;29.42;;;15.23;;
56455;SDS011;42354;53.218;6.564;2023-05-10T03:04:43;32.05;;;16.45;;
56455;SDS011;42354;53.218;6.564;2023-05-10T03:07:09;36.05;;;17.30;;
56455;SDS011;42354;53.218;6.564;2023-05-10T03:09:35;33.22;;;17.20;;
56455;SDS011;42354;53.218;6.564;2023-05-10T03:12:02;31.98;;;16.50;;
56455;SDS011;42354;53.218;6.564;2023-05-10T03:17:13;32.78;;;17.63;;
56455;SDS011;42354;53.218;6.564;2023-05-10T03:19:56;32.08;;;17.10;;
56455;SDS011;42354;53.218;6.564;2023-05-10T03:22:37;28.40;;;16.23;;
56455;SDS011;42354;53.218;6.564;2023-05-10T03:25:07;26.52;;;15.48;;
56455;SDS011;42354;53.218;6.564;2023-05-10T03:27:36;29.70;;;16.00;;
56455;SDS011;42354;53.218;6.564;2023-05-10T03:30:04;30.13;;;15.75;;
56455;SDS011;42354;53.218;6.564;2023-05-10T03:32:31;33.28;;;16.17;;
56455;SDS011;42354;53.218;6.564;2023-05-10T03:34:59;28.05;;;16.10;;
56455;SDS011;42354;53.218;6.564;2023-05-10T03:37:24;31.27;;;16.35;;
56455;SDS011;42354;53.218;6.564;2023-05-10T03:39:49;30.27;;;18.23;;
56455;SDS011;42354;53.218;6.564;2023-05-10T03:42:15;30.27;;;16.70;;
56455;SDS011;42354;53.218;6.564;2023-05-10T03:44:42;33.35;;;16.85;;
56455;SDS011;42354;53.218;6.564;2023-05-10T03:47:08;33.65;;;17.35;;
56455;SDS011;42354;53.218;6.564;2023-05-10T03:49:33;35.08;;;17.27;;
56455;SDS011;42354;53.218;6.564;2023-05-10T03:51:58;40.53;;;20.08;;
56455;SDS011;42354;53.218;6.564;2023-05-10T03:54:24;39.17;;;19.42;;
56455;SDS011;42354;53.218;6.564;2023-05-10T03:56:49;42.28;;;20.23;;
56455;SDS011;42354;53.218;6.564;2023-05-10T03:59:14;43.13;;;21.00;;
56455;SDS011;42354;53.218;6.564;2023-05-10T04:01:40;45.38;;;19.73;;
56455;SDS011;42354;53.218;6.564;2023-05-10T04:04:05;43.45;;;20.27;;
56455;SDS011;42354;53.218;6.564;2023-05-10T04:06:31;44.88;;;20.65;;
56455;SDS011;42354;53.218;6.564;2023-05-10T04:08:56;46.65;;;21.75;;
56455;SDS011;42354;53.218;6.564;2023-05-10T04:11:24;44.72;;;21.13;;
56455;SDS011;42354;53.218;6.564;2023-05-10T04:13:50;37.95;;;16.88;;
56455;SDS011;42354;53.218;6.564;2023-05-10T04:16:15;30.90;;;15.10;;
56455;SDS011;42354;53.218;6.564;2023-05-10T04:18:41;28.55;;;14.15;;
56455;SDS011;42354;53.218;6.564;2023-05-10T04:21:12;27.70;;;13.98;;
56455;SDS011;42354;53.218;6.564;2023-05-10T04:23:38;25.20;;;14.02;;
56455;SDS011;42354;53.218;6.564;2023-05-10T04:26:04;24.65;;;12.85;;
56455;SDS011;42354;53.218;6.564;2023-05-10T04:28:29;22.05;;;12.77;;
56455;SDS011;42354;53.218;6.564;2023-05-10T04:31:04;20.95;;;12.30;;
56455;SDS011;42354;53.218;6.564;2023-05-10T04:33:31;24.67;;;12.43;;
56455;SDS011;42354;53.218;6.564;2023-05-10T04:35:57;21.17;;;12.77;;
56455;SDS011;42354;53.218;6.564;2023-05-10T04:38:22;19.65;;;12.15;;
56455;SDS011;42354;53.218;6.564;2023-05-10T04:40:48;23.25;;;11.88;;
56455;SDS011;42354;53.218;6.564;2023-05-10T04:43:13;19.08;;;10.98;;
56455;SDS011;42354;53.218;6.564;2023-05-10T04:45:38;19.52;;;10.93;;
56455;SDS011;42354;53.218;6.564;2023-05-10T04:48:04;22.10;;;11.75;;
56455;SDS011;42354;53.218;6.564;2023-05-10T04:50:30;20.15;;;11.23;;
56455;SDS011;42354;53.218;6.564;2023-05-10T04:52:55;17.40;;;10.73;;
56455;SDS011;42354;53.218;6.564;2023-05-10T04:55:21;20.15;;;10.52;;
56455;SDS011;42354;53.218;6.564;2023-05-10T04:57:46;15.48;;;9.95;;
56455;SDS011;42354;53.218;6.564;2023-05-10T05:00:12;18.15;;;11.45;;
56455;SDS011;42354;53.218;6.564;2023-05-10T05:02:37;20.20;;;10.80;;
56455;SDS011;42354;53.218;6.564;2023-05-10T05:05:03;18.80;;;10.63;;
56455;SDS011;42354;53.218;6.564;2023-05-10T05:07:29;18.77;;;11.63;;
56455;SDS011;42354;53.218;6.564;2023-05-10T05:09:55;24.27;;;12.68;;
56455;SDS011;42354;53.218;6.564;2023-05-10T05:12:21;21.73;;;12.57;;
56455;SDS011;42354;53.218;6.564;2023-05-10T05:14:46;21.27;;;11.75;;
56455;SDS011;42354;53.218;6.564;2023-05-10T05:17:11;20.48;;;11.98;;
56455;SDS011;42354;53.218;6.564;2023-05-10T05:19:38;19.05;;;11.07;;
56455;SDS011;42354;53.218;6.564;2023-05-10T05:22:06;21.55;;;11.20;;
56455;SDS011;42354;53.218;6.564;2023-05-10T05:24:34;19.23;;;11.00;;
56455;SDS011;42354;53.218;6.564;2023-05-10T05:27:01;20.40;;;11.02;;
56455;SDS011;42354;53.218;6.564;2023-05-10T05:29:26;19.95;;;11.60;;
56455;SDS011;42354;53.218;6.564;2023-05-10T05:31:52;22.27;;;11.98;;
56455;SDS011;42354;53.218;6.564;2023-05-10T05:34:17;22.10;;;11.02;;
56455;SDS011;42354;53.218;6.564;2023-05-10T05:36:42;17.20;;;10.45;;
56455;SDS011;42354;53.218;6.564;2023-05-10T05:39:08;21.70;;;11.10;;
56455;SDS011;42354;53.218;6.564;2023-05-10T05:41:33;21.45;;;10.82;;
56455;SDS011;42354;53.218;6.564;2023-05-10T05:43:58;20.33;;;10.50;;
56455;SDS011;42354;53.218;6.564;2023-05-10T05:46:24;20.52;;;10.95;;
56455;SDS011;42354;53.218;6.564;2023-05-10T05:48:49;20.60;;;10.30;;
56455;SDS011;42354;53.218;6.564;2023-05-10T05:51:15;23.48;;;10.85;;
56455;SDS011;42354;53.218;6.564;2023-05-10T05:53:40;23.95;;;11.13;;
56455;SDS011;42354;53.218;6.564;2023-05-10T05:56:06;19.52;;;9.63;;
56455;SDS011;42354;53.218;6.564;2023-05-10T05:58:31;17.25;;;9.88;;
56455;SDS011;42354;53.218;6.564;2023-05-10T06:00:56;20.65;;;10.32;;
56455;SDS011;42354;53.218;6.564;2023-05-10T06:03:22;17.38;;;8.95;;
56455;SDS011;42354;53.218;6.564;2023-05-10T06:05:47;14.65;;;8.27;;
56455;SDS011;42354;53.218;6.564;2023-05-10T06:08:13;12.60;;;7.05;;
56455;SDS011;42354;53.218;6.564;2023-05-10T06:10:38;11.80;;;6.82;;
56455;SDS011;42354;53.218;6.564;2023-05-10T06:13:04;7.32;;;4.60;;
56455;SDS011;42354;53.218;6.564;2023-05-10T06:15:29;7.40;;;3.67;;
56455;SDS011;42354;53.218;6.564;2023-05-10T06:17:55;5.10;;;3.15;;
56455;SDS011;42354;53.218;6.564;2023-05-10T06:20:20;6.03;;;3.30;;
56455;SDS011;42354;53.218;6.564;2023-05-10T06:22:45;4.13;;;2.70;;
56455;SDS011;42354;53.218;6.564;2023-05-10T06:25:12;4.07;;;2.72;;
56455;SDS011;42354;53.218;6.564;2023-05-10T06:27:39;4.95;;;2.90;;
56455;SDS011;42354;53.218;6.564;2023-05-10T06:30:04;4.05;;;2.63;;
56455;SDS011;42354;53.218;6.564;2023-05-10T06:32:30;5.47;;;3.42;;
56455;SDS011;42354;53.218;6.564;2023-05-10T06:34:56;8.82;;;5.35;;
56455;SDS011;42354;53.218;6.564;2023-05-10T06:37:21;10.02;;;5.47;;
56455;SDS011;42354;53.218;6.564;2023-05-10T06:39:46;12.30;;;7.28;;
56455;SDS011;42354;53.218;6.564;2023-05-10T06:42:12;19.73;;;9.52;;
56455;SDS011;42354;53.218;6.564;2023-05-10T06:44:37;25.55;;;14.75;;
56455;SDS011;42354;53.218;6.564;2023-05-10T06:47:03;26.42;;;13.32;;
56455;SDS011;42354;53.218;6.564;2023-05-10T06:49:28;19.95;;;12.48;;
56455;SDS011;42354;53.218;6.564;2023-05-10T06:51:55;25.77;;;13.68;;
56455;SDS011;42354;53.218;6.564;2023-05-10T06:54:21;23.10;;;12.93;;
56455;SDS011;42354;53.218;6.564;2023-05-10T06:56:46;27.08;;;13.95;;
56455;SDS011;42354;53.218;6.564;2023-05-10T06:59:11;25.17;;;13.02;;
56455;SDS011;42354;53.218;6.564;2023-05-10T07:01:38;27.02;;;13.27;;
56455;SDS011;42354;53.218;6.564;2023-05-10T07:04:03;20.10;;;12.20;;
56455;SDS011;42354;53.218;6.564;2023-05-10T07:06:29;21.58;;;12.40;;
56455;SDS011;42354;53.218;6.564;2023-05-10T07:08:54;22.88;;;12.10;;
56455;SDS011;42354;53.218;6.564;2023-05-10T07:11:20;18.38;;;11.07;;
56455;SDS011;42354;53.218;6.564;2023-05-10T07:13:45;21.00;;;10.48;;
56455;SDS011;42354;53.218;6.564;2023-05-10T07:16:11;17.60;;;10.55;;
56455;SDS011;42354;53.218;6.564;2023-05-10T07:18:36;16.13;;;9.63;;
56455;SDS011;42354;53.218;6.564;2023-05-10T07:21:02;15.65;;;9.38;;
56455;SDS011;42354;53.218;6.564;2023-05-10T07:23:28;16.05;;;9.80;;
56455;SDS011;42354;53.218;6.564;2023-05-10T07:25:53;15.13;;;9.68;;
56455;SDS011;42354;53.218;6.564;2023-05-10T07:28:19;14.50;;;8.88;;
56455;SDS011;42354;53.218;6.564;2023-05-10T07:30:45;16.35;;;9.85;;
56455;SDS011;42354;53.218;6.564;2023-05-10T07:33:11;13.32;;;8.15;;
56455;SDS011;42354;53.218;6.564;2023-05-10T07:35:38;17.75;;;8.45;;
56455;SDS011;42354;53.218;6.564;2023-05-10T07:38:04;11.60;;;7.18;;
56455;SDS011;42354;53.218;6.564;2023-05-10T07:40:30;10.30;;;6.72;;
56455;SDS011;42354;53.218;6.564;2023-05-10T07:42:56;10.27;;;6.90;;
56455;SDS011;42354;53.218;6.564;2023-05-10T07:45:21;8.65;;;6.18;;
56455;SDS011;42354;53.218;6.564;2023-05-10T07:47:48;5.85;;;4.32;;
56455;SDS011;42354;53.218;6.564;2023-05-10T07:50:13;5.65;;;4.30;;
56455;SDS011;42354;53.218;6.564;2023-05-10T07:52:39;5.47;;;3.83;;
56455;SDS011;42354;53.218;6.564;2023-05-10T07:55:05;4.72;;;3.45;;
56455;SDS011;42354;53.218;6.564;2023-05-10T07:57:32;6.70;;;3.78;;
56455;SDS011;42354;53.218;6.564;2023-05-10T08:00:01;8.00;;;4.90;;
56455;SDS011;42354;53.218;6.564;2023-05-10T08:02:27;6.63;;;5.25;;
56455;SDS011;42354;53.218;6.564;2023-05-10T08:04:53;9.25;;;5.88;;
56455;SDS011;42354;53.218;6.564;2023-05-10T08:07:18;10.65;;;6.68;;
56455;SDS011;42354;53.218;6.564;2023-05-10T08:09:43;10.13;;;6.30;;
56455;SDS011;42354;53.218;6.564;2023-05-10T08:12:09;11.35;;;6.95;;
56455;SDS011;42354;53.218;6.564;2023-05-10T08:14:34;14.05;;;8.10;;
56455;SDS011;42354;53.218;6.564;2023-05-10T08:17:01;13.02;;;7.63;;
56455;SDS011;42354;53.218;6.564;2023-05-10T08:19:28;12.32;;;7.57;;
56455;SDS011;42354;53.218;6.564;2023-05-10T08:21:53;13.48;;;7.80;;
56455;SDS011;42354;53.218;6.564;2023-05-10T08:24:20;10.25;;;6.65;;
56455;SDS011;42354;53.218;6.564;2023-05-10T08:26:46;15.13;;;7.80;;
56455;SDS011;42354;53.218;6.564;2023-05-10T08:29:12;13.65;;;7.55;;
56455;SDS011;42354;53.218;6.564;2023-05-10T08:31:38;12.13;;;8.02;;
56455;SDS011;42354;53.218;6.564;2023-05-10T08:34:03;10.57;;;7.38;;
56455;SDS011;42354;53.218;6.564;2023-05-10T08:36:29;11.52;;;7.85;;
56455;SDS011;42354;53.218;6.564;2023-05-10T08:38:54;9.60;;;6.68;;
56455;SDS011;42354;53.218;6.564;2023-05-10T08:41:20;10.00;;;7.65;;
56455;SDS011;42354;53.218;6.564;2023-05-10T08:43:46;9.68;;;7.88;;
56455;SDS011;42354;53.218;6.564;2023-05-10T08:46:16;10.05;;;7.60;;
56455;SDS011;42354;53.218;6.564;2023-05-10T08:48:43;11.43;;;7.47;;
56455;SDS011;42354;53.218;6.564;2023-05-10T08:51:09;8.95;;;6.90;;
56455;SDS011;42354;53.218;6.564;2023-05-10T08:53:40;11.25;;;6.88;;
56455;SDS011;42354;53.218;6.564;2023-05-10T08:56:05;9.18;;;5.97;;
56455;SDS011;42354;53.218;6.564;2023-05-10T08:58:31;8.88;;;6.28;;
56455;SDS011;42354;53.218;6.564;2023-05-10T09:00:57;7.80;;;5.13;;
56455;SDS011;42354;53.218;6.564;2023-05-10T09:03:24;9.23;;;5.95;;
56455;SDS011;42354;53.218;6.564;2023-05-10T09:05:50;7.68;;;5.40;;
56455;SDS011;42354;53.218;6.564;2023-05-10T09:08:15;14.30;;;7.15;;
56455;SDS011;42354;53.218;6.564;2023-05-10T09:10:45;9.75;;;6.72;;
56455;SDS011;42354;53.218;6.564;2023-05-10T09:13:14;13.07;;;8.30;;
56455;SDS011;42354;53.218;6.564;2023-05-10T09:15:40;12.63;;;7.80;;
56455;SDS011;42354;53.218;6.564;2023-05-10T09:18:06;14.00;;;7.93;;
56455;SDS011;42354;53.218;6.564;2023-05-10T09:20:31;14.07;;;8.05;;
56455;SDS011;42354;53.218;6.564;2023-05-10T09:22:56;12.35;;;7.80;;
56455;SDS011;42354;53.218;6.564;2023-05-10T09:25:22;12.65;;;7.88;;
56455;SDS011;42354;53.218;6.564;2023-05-10T09:27:47;11.35;;;7.10;;
56455;SDS011;42354;53.218;6.564;2023-05-10T09:30:15;15.20;;;8.50;;
56455;SDS011;42354;53.218;6.564;2023-05-10T09:32:52;11.15;;;7.00;;
56455;SDS011;42354;53.218;6.564;2023-05-10T09:35:19;14.60;;;7.63;;
56455;SDS011;42354;53.218;6.564;2023-05-10T09:37:47;17.58;;;7.60;;
56455;SDS011;42354;53.218;6.564;2023-05-10T09:40:16;12.52;;;7.25;;
56455;SDS011;42354;53.218;6.564;2023-05-10T09:42:50;14.88;;;7.18;;
56455;SDS011;42354;53.218;6.564;2023-05-10T09:45:17;10.48;;;7.28;;
56455;SDS011;42354;53.218;6.564;2023-05-10T09:47:43;12.95;;;7.40;;
56455;SDS011;42354;53.218;6.564;2023-05-10T09:50:09;11.40;;;7.00;;
56455;SDS011;42354;53.218;6.564;2023-05-10T09:58:01;10.30;;;5.28;;
56455;SDS011;42354;53.218;6.564;2023-05-10T10:00:27;8.35;;;5.50;;
56455;SDS011;42354;53.218;6.564;2023-05-10T10:02:56;11.52;;;4.90;;
56455;SDS011;42354;53.218;6.564;2023-05-10T10:05:33;6.88;;;5.10;;
56455;SDS011;42354;53.218;6.564;2023-05-10T10:08:00;8.80;;;4.97;;
56455;SDS011;42354;53.218;6.564;2023-05-10T10:10:27;7.50;;;4.70;;
56455;SDS011;42354;53.218;6.564;2023-05-10T10:12:53;9.65;;;4.85;;
56455;SDS011;42354;53.218;6.564;2023-05-10T10:15:22;6.90;;;4.22;;
56455;SDS011;42354;53.218;6.564;2023-05-10T10:17:49;13.75;;;6.85;;
56455;SDS011;42354;53.218;6.564;2023-05-10T10:20:16;5.78;;;3.92;;
56455;SDS011;42354;53.218;6.564;2023-05-10T10:22:43;5.15;;;3.28;;
56455;SDS011;42354;53.218;6.564;2023-05-10T10:25:09;4.80;;;3.30;;
56455;SDS011;42354;53.218;6.564;2023-05-10T10:36:09;6.13;;;4.13;;
56455;SDS011;42354;53.218;6.564;2023-05-10T10:38:36;6.15;;;3.88;;
56455;SDS011;42354;53.218;6.564;2023-05-10T10:50:22;9.30;;;5.75;;
56455;SDS011;42354;53.218;6.564;2023-05-10T10:52:26;8.00;;;5.65;;
56455;SDS011;42354;53.218;6.564;2023-05-10T10:57:23;9.02;;;7.05;;
56455;SDS011;42354;53.218;6.564;2023-05-10T10:59:51;9.70;;;7.38;;
56455;SDS011;42354;53.218;6.564;2023-05-10T11:07:56;11.48;;;7.78;;
56455;SDS011;42354;53.218;6.564;2023-05-10T11:10:24;9.73;;;7.25;;
56455;SDS011;42354;53.218;6.564;2023-05-10T11:13:12;10.07;;;8.23;;
56455;SDS011;42354;53.218;6.564;2023-05-10T11:15:38;12.07;;;8.73;;
56455;SDS011;42354;53.218;6.564;2023-05-10T11:18:31;11.00;;;8.05;;
56455;SDS011;42354;53.218;6.564;2023-05-10T11:20:57;12.65;;;8.02;;
56455;SDS011;42354;53.218;6.564;2023-05-10T11:26:08;15.60;;;8.02;;
56455;SDS011;42354;53.218;6.564;2023-05-10T11:28:34;12.05;;;8.20;;
56455;SDS011;42354;53.218;6.564;2023-05-10T11:31:06;12.95;;;7.97;;
56455;SDS011;42354;53.218;6.564;2023-05-10T11:33:31;14.05;;;9.13;;
56455;SDS011;42354;53.218;6.564;2023-05-10T11:36:10;14.13;;;8.77;;
56455;SDS011;42354;53.218;6.564;2023-05-10T11:38:36;14.50;;;9.00;;
56455;SDS011;42354;53.218;6.564;2023-05-10T11:41:01;16.13;;;9.27;;
56455;SDS011;42354;53.218;6.564;2023-05-10T11:43:27;13.70;;;9.75;;
56455;SDS011;42354;53.218;6.564;2023-05-10T11:45:55;16.88;;;9.30;;
56455;SDS011;42354;53.218;6.564;2023-05-10T11:48:21;14.52;;;9.00;;
56455;SDS011;42354;53.218;6.564;2023-05-10T11:50:48;15.55;;;9.38;;
56455;SDS011;42354;53.218;6.564;2023-05-10T11:53:14;15.20;;;8.82;;
56455;SDS011;42354;53.218;6.564;2023-05-10T11:55:40;15.98;;;9.55;;
56455;SDS011;42354;53.218;6.564;2023-05-10T11:58:05;16.60;;;11.07;;
56455;SDS011;42354;53.218;6.564;2023-05-10T12:00:30;15.23;;;10.23;;
56455;SDS011;42354;53.218;6.564;2023-05-10T12:02:56;17.83;;;11.57;;
56455;SDS011;42354;53.218;6.564;2023-05-10T12:05:22;18.27;;;10.13;;
56455;SDS011;42354;53.218;6.564;2023-05-10T12:07:48;16.13;;;9.55;;
56455;SDS011;42354;53.218;6.564;2023-05-10T12:10:13;16.77;;;9.93;;
56455;SDS011;42354;53.218;6.564;2023-05-10T12:12:46;18.65;;;12.25;;
56455;SDS011;42354;53.218;6.564;2023-05-10T12:15:21;15.57;;;10.30;;
56455;SDS011;42354;53.218;6.564;2023-05-10T12:17:48;15.80;;;9.73;;
56455;SDS011;42354;53.218;6.564;2023-05-10T12:20:18;17.67;;;10.00;;
56455;SDS011;42354;53.218;6.564;2023-05-10T12:22:49;17.75;;;11.02;;
56455;SDS011;42354;53.218;6.564;2023-05-10T12:25:17;18.77;;;10.52;;
56455;SDS011;42354;53.218;6.564;2023-05-10T12:27:48;18.50;;;10.40;;
56455;SDS011;42354;53.218;6.564;2023-05-10T12:30:18;17.25;;;10.38;;
56455;SDS011;42354;53.218;6.564;2023-05-10T12:32:51;23.05;;;10.63;;
56455;SDS011;42354;53.218;6.564;2023-05-10T12:35:21;17.30;;;10.30;;
56455;SDS011;42354;53.218;6.564;2023-05-10T12:37:50;22.98;;;13.20;;
56455;SDS011;42354;53.218;6.564;2023-05-10T12:40:16;18.30;;;11.45;;
56455;SDS011;42354;53.218;6.564;2023-05-10T12:42:42;18.58;;;11.52;;
56455;SDS011;42354;53.218;6.564;2023-05-10T12:45:33;17.00;;;10.77;;
56455;SDS011;42354;53.218;6.564;2023-05-10T12:48:00;16.85;;;10.50;;
56455;SDS011;42354;53.218;6.564;2023-05-10T12:50:25;17.15;;;10.10;;
56455;SDS011;42354;53.218;6.564;2023-05-10T12:52:52;19.17;;;10.90;;
56455;SDS011;42354;53.218;6.564;2023-05-10T12:55:18;20.02;;;11.93;;
56455;SDS011;42354;53.218;6.564;2023-05-10T12:57:44;15.90;;;9.73;;
56455;SDS011;42354;53.218;6.564;2023-05-10T13:00:10;20.95;;;11.27;;
56455;SDS011;42354;53.218;6.564;2023-05-10T13:02:35;17.85;;;11.30;;
56455;SDS011;42354;53.218;6.564;2023-05-10T13:05:01;14.27;;;9.90;;
56455;SDS011;42354;53.218;6.564;2023-05-10T13:07:26;13.60;;;9.15;;
56455;SDS011;42354;53.218;6.564;2023-05-10T13:09:52;15.32;;;9.43;;
56455;SDS011;42354;53.218;6.564;2023-05-10T13:12:22;18.45;;;10.07;;
56455;SDS011;42354;53.218;6.564;2023-05-10T13:14:47;16.33;;;10.07;;
56455;SDS011;42354;53.218;6.564;2023-05-10T13:17:14;14.32;;;9.00;;
56455;SDS011;42354;53.218;6.564;2023-05-10T13:19:39;12.85;;;8.02;;
56455;SDS011;42354;53.218;6.564;2023-05-10T13:22:04;14.77;;;8.65;;
56455;SDS011;42354;53.218;6.564;2023-05-10T13:24:30;13.48;;;9.23;;
56455;SDS011;42354;53.218;6.564;2023-05-10T13:26:55;13.38;;;8.65;;
56455;SDS011;42354;53.218;6.564;2023-05-10T13:29:21;12.93;;;8.77;;
56455;SDS011;42354;53.218;6.564;2023-05-10T13:31:47;15.85;;;8.77;;
56455;SDS011;42354;53.218;6.564;2023-05-10T13:34:12;13.43;;;8.52;;
56455;SDS011;42354;53.218;6.564;2023-05-10T13:36:38;15.75;;;9.20;;
56455;SDS011;42354;53.218;6.564;2023-05-10T13:39:03;15.20;;;8.55;;
56455;SDS011;42354;53.218;6.564;2023-05-10T13:41:30;14.88;;;8.63;;
56455;SDS011;42354;53.218;6.564;2023-05-10T13:43:55;14.30;;;9.43;;
56455;SDS011;42354;53.218;6.564;2023-05-10T13:46:21;13.20;;;8.65;;
56455;SDS011;42354;53.218;6.564;2023-05-10T13:48:46;16.27;;;9.43;;
56455;SDS011;42354;53.218;6.564;2023-05-10T13:51:11;24.15;;;11.77;;
56455;SDS011;42354;53.218;6.564;2023-05-10T13:53:37;11.75;;;8.38;;
56455;SDS011;42354;53.218;6.564;2023-05-10T13:56:03;14.30;;;8.98;;
56455;SDS011;42354;53.218;6.564;2023-05-10T13:58:28;15.48;;;8.32;;
56455;SDS011;42354;53.218;6.564;2023-05-10T14:00:53;14.43;;;8.70;;
56455;SDS011;42354;53.218;6.564;2023-05-10T14:03:19;14.55;;;9.02;;
56455;SDS011;42354;53.218;6.564;2023-05-10T14:05:44;16.70;;;9.65;;
56455;SDS011;42354;53.218;6.564;2023-05-10T14:08:10;15.60;;;9.43;;
56455;SDS011;42354;53.218;6.564;2023-05-10T14:10:35;13.98;;;8.73;;
56455;SDS011;42354;53.218;6.564;2023-05-10T14:13:01;15.60;;;9.15;;
56455;SDS011;42354;53.218;6.564;2023-05-10T14:15:28;14.30;;;9.45;;
56455;SDS011;42354;53.218;6.564;2023-05-10T14:17:53;13.05;;;8.65;;
56455;SDS011;42354;53.218;6.564;2023-05-10T14:20:20;17.05;;;9.57;;
56455;SDS011;42354;53.218;6.564;2023-05-10T14:22:45;18.15;;;10.70;;
56455;SDS011;42354;53.218;6.564;2023-05-10T14:25:11;16.50;;;9.80;;
56455;SDS011;42354;53.218;6.564;2023-05-10T14:27:37;17.02;;;10.10;;
56455;SDS011;42354;53.218;6.564;2023-05-10T14:30:02;15.73;;;10.48;;
56455;SDS011;42354;53.218;6.564;2023-05-10T14:32:28;18.90;;;11.10;;
56455;SDS011;42354;53.218;6.564;2023-05-10T14:34:53;17.27;;;10.75;;
56455;SDS011;42354;53.218;6.564;2023-05-10T14:37:19;18.27;;;11.00;;
56455;SDS011;42354;53.218;6.564;2023-05-10T14:39:44;14.95;;;9.52;;
56455;SDS011;42354;53.218;6.564;2023-05-10T14:42:09;16.02;;;9.95;;
56455;SDS011;42354;53.218;6.564;2023-05-10T14:44:35;18.25;;;10.55;;
56455;SDS011;42354;53.218;6.564;2023-05-10T14:47:00;18.00;;;11.48;;
56455;SDS011;42354;53.218;6.564;2023-05-10T14:49:25;14.77;;;9.80;;
56455;SDS011;42354;53.218;6.564;2023-05-10T14:51:51;14.52;;;9.18;;
56455;SDS011;42354;53.218;6.564;2023-05-10T14:54:17;17.27;;;9.90;;
56455;SDS011;42354;53.218;6.564;2023-05-10T14:56:42;15.00;;;9.85;;
56455;SDS011;42354;53.218;6.564;2023-05-10T14:59:07;15.13;;;9.80;;
56455;SDS011;42354;53.218;6.564;2023-05-10T15:01:33;13.65;;;9.50;;
56455;SDS011;42354;53.218;6.564;2023-05-10T15:04:03;14.50;;;9.30;;
56455;SDS011;42354;53.218;6.564;2023-05-10T15:06:32;17.13;;;12.02;;
56455;SDS011;42354;53.218;6.564;2023-05-10T15:09:00;18.50;;;11.13;;
56455;SDS011;42354;53.218;6.564;2023-05-10T15:11:26;18.70;;;12.38;;
56455;SDS011;42354;53.218;6.564;2023-05-10T15:13:52;18.67;;;11.90;;
56455;SDS011;42354;53.218;6.564;2023-05-10T15:16:18;15.60;;;10.68;;
56455;SDS011;42354;53.218;6.564;2023-05-10T15:18:43;16.52;;;10.77;;
56455;SDS011;42354;53.218;6.564;2023-05-10T15:21:09;19.27;;;12.15;;
56455;SDS011;42354;53.218;6.564;2023-05-10T15:23:35;18.67;;;11.23;;